sensor_id;sensor_type;location;lat;lon;timestamp;P1;durP1;ratioP1;P2;durP2;ratioP2
72319;SDS011;60269;52.502;16.732;2023-07-08T00:01:08;9.83;;;4.17;;
72319;SDS011;60269;52.502;16.732;2023-07-08T00:04:50;10.80;;;3.80;;
72319;SDS011;60269;52.502;16.732;2023-07-08T00:08:22;10.20;;;3.88;;
72319;SDS011;60269;52.502;16.732;2023-07-08T00:11:54;11.13;;;4.07;;
72319;SDS011;60269;52.502;16.732;2023-07-08T00:15:27;10.30;;;4.07;;
72319;SDS011;60269;52.502;16.732;2023-07-08T00:19:04;11.27;;;4.90;;
72319;SDS011;60269;52.502;16.732;2023-07-08T00:22:41;14.85;;;4.97;;
72319;SDS011;60269;52.502;16.732;2023-07-08T00:26:15;9.50;;;4.72;;
72319;SDS011;60269;52.502;16.732;2023-07-08T00:29:51;11.70;;;4.83;;
72319;SDS011;60269;52.502;16.732;2023-07-08T00:33:23;11.37;;;5.27;;
72319;SDS011;60269;52.502;16.732;2023-07-08T00:36:55;10.60;;;5.00;;
72319;SDS011;60269;52.502;16.732;2023-07-08T00:40:31;13.15;;;5.40;;
72319;SDS011;60269;52.502;16.732;2023-07-08T00:44:04;9.50;;;5.03;;
72319;SDS011;60269;52.502;16.732;2023-07-08T00:47:36;15.27;;;5.57;;
72319;SDS011;60269;52.502;16.732;2023-07-08T00:51:12;14.00;;;5.45;;
72319;SDS011;60269;52.502;16.732;2023-07-08T00:54:46;11.77;;;5.35;;
72319;SDS011;60269;52.502;16.732;2023-07-08T00:58:21;11.77;;;5.27;;
72319;SDS011;60269;52.502;16.732;2023-07-08T01:01:55;14.67;;;5.83;;
72319;SDS011;60269;52.502;16.732;2023-07-08T01:05:29;10.68;;;5.15;;
72319;SDS011;60269;52.502;16.732;2023-07-08T01:09:02;12.32;;;5.22;;
72319;SDS011;60269;52.502;16.732;2023-07-08T01:12:39;13.93;;;5.73;;
72319;SDS011;60269;52.502;16.732;2023-07-08T01:16:16;10.30;;;4.37;;
72319;SDS011;60269;52.502;16.732;2023-07-08T01:19:48;11.07;;;4.50;;
72319;SDS011;60269;52.502;16.732;2023-07-08T01:23:22;9.80;;;4.20;;
72319;SDS011;60269;52.502;16.732;2023-07-08T01:26:55;10.67;;;5.10;;
72319;SDS011;60269;52.502;16.732;2023-07-08T01:30:29;11.00;;;5.13;;
72319;SDS011;60269;52.502;16.732;2023-07-08T01:34:01;10.95;;;5.15;;
72319;SDS011;60269;52.502;16.732;2023-07-08T01:37:34;9.50;;;4.13;;
72319;SDS011;60269;52.502;16.732;2023-07-08T01:41:11;13.60;;;5.50;;
72319;SDS011;60269;52.502;16.732;2023-07-08T01:44:44;10.80;;;5.40;;
72319;SDS011;60269;52.502;16.732;2023-07-08T01:48:18;10.82;;;4.88;;
72319;SDS011;60269;52.502;16.732;2023-07-08T01:51:52;12.25;;;5.30;;
72319;SDS011;60269;52.502;16.732;2023-07-08T01:55:25;13.73;;;4.87;;
72319;SDS011;60269;52.502;16.732;2023-07-08T01:59:00;9.77;;;4.33;;
72319;SDS011;60269;52.502;16.732;2023-07-08T02:02:32;11.98;;;4.78;;
72319;SDS011;60269;52.502;16.732;2023-07-08T02:06:04;13.10;;;5.70;;
72319;SDS011;60269;52.502;16.732;2023-07-08T02:09:37;13.77;;;5.73;;
72319;SDS011;60269;52.502;16.732;2023-07-08T02:13:09;13.23;;;5.10;;
72319;SDS011;60269;52.502;16.732;2023-07-08T02:16:41;11.85;;;5.18;;
72319;SDS011;60269;52.502;16.732;2023-07-08T02:20:13;10.32;;;4.85;;
72319;SDS011;60269;52.502;16.732;2023-07-08T02:23:48;14.13;;;5.00;;
72319;SDS011;60269;52.502;16.732;2023-07-08T02:27:22;17.47;;;5.53;;
72319;SDS011;60269;52.502;16.732;2023-07-08T02:30:54;16.80;;;5.70;;
72319;SDS011;60269;52.502;16.732;2023-07-08T02:34:29;14.05;;;6.15;;
72319;SDS011;60269;52.502;16.732;2023-07-08T02:38:03;11.47;;;5.60;;
72319;SDS011;60269;52.502;16.732;2023-07-08T02:41:34;10.97;;;5.33;;
72319;SDS011;60269;52.502;16.732;2023-07-08T02:45:07;13.30;;;5.35;;
72319;SDS011;60269;52.502;16.732;2023-07-08T02:48:39;13.82;;;5.32;;
72319;SDS011;60269;52.502;16.732;2023-07-08T02:52:11;13.87;;;6.13;;
72319;SDS011;60269;52.502;16.732;2023-07-08T02:55:44;13.07;;;5.47;;
72319;SDS011;60269;52.502;16.732;2023-07-08T02:59:16;12.65;;;5.78;;
72319;SDS011;60269;52.502;16.732;2023-07-08T03:02:48;13.00;;;5.40;;
72319;SDS011;60269;52.502;16.732;2023-07-08T03:06:20;9.93;;;5.13;;
72319;SDS011;60269;52.502;16.732;2023-07-08T03:09:53;9.37;;;4.40;;
72319;SDS011;60269;52.502;16.732;2023-07-08T03:13:27;13.10;;;5.20;;
72319;SDS011;60269;52.502;16.732;2023-07-08T03:17:00;9.50;;;4.75;;
72319;SDS011;60269;52.502;16.732;2023-07-08T03:20:33;12.50;;;4.40;;
72319;SDS011;60269;52.502;16.732;2023-07-08T03:24:17;9.80;;;4.37;;
72319;SDS011;60269;52.502;16.732;2023-07-08T03:27:50;10.25;;;4.25;;
72319;SDS011;60269;52.502;16.732;2023-07-08T03:31:21;10.35;;;4.78;;
72319;SDS011;60269;52.502;16.732;2023-07-08T03:34:54;12.13;;;5.07;;
72319;SDS011;60269;52.502;16.732;2023-07-08T03:38:25;12.37;;;5.73;;
72319;SDS011;60269;52.502;16.732;2023-07-08T03:41:58;9.18;;;4.53;;
72319;SDS011;60269;52.502;16.732;2023-07-08T03:45:29;11.95;;;4.13;;
72319;SDS011;60269;52.502;16.732;2023-07-08T03:49:02;11.47;;;4.60;;
72319;SDS011;60269;52.502;16.732;2023-07-08T03:52:33;10.93;;;5.10;;
72319;SDS011;60269;52.502;16.732;2023-07-08T03:56:07;9.85;;;4.28;;
72319;SDS011;60269;52.502;16.732;2023-07-08T03:59:42;11.27;;;4.60;;
72319;SDS011;60269;52.502;16.732;2023-07-08T04:03:15;9.00;;;4.43;;
72319;SDS011;60269;52.502;16.732;2023-07-08T04:06:47;10.57;;;5.00;;
72319;SDS011;60269;52.502;16.732;2023-07-08T04:10:19;16.30;;;5.60;;
72319;SDS011;60269;52.502;16.732;2023-07-08T04:13:51;8.67;;;4.43;;
72319;SDS011;60269;52.502;16.732;2023-07-08T04:17:23;14.90;;;5.80;;
72319;SDS011;60269;52.502;16.732;2023-07-08T04:20:55;13.65;;;5.13;;
72319;SDS011;60269;52.502;16.732;2023-07-08T04:24:31;15.55;;;4.85;;
72319;SDS011;60269;52.502;16.732;2023-07-08T04:28:03;11.10;;;5.40;;
72319;SDS011;60269;52.502;16.732;2023-07-08T04:31:35;11.90;;;4.87;;
72319;SDS011;60269;52.502;16.732;2023-07-08T04:35:07;10.30;;;5.30;;
72319;SDS011;60269;52.502;16.732;2023-07-08T04:38:40;11.27;;;5.43;;
72319;SDS011;60269;52.502;16.732;2023-07-08T04:42:15;11.83;;;4.77;;
72319;SDS011;60269;52.502;16.732;2023-07-08T04:45:50;10.90;;;4.43;;
72319;SDS011;60269;52.502;16.732;2023-07-08T04:49:24;12.13;;;4.80;;
72319;SDS011;60269;52.502;16.732;2023-07-08T04:52:59;12.73;;;4.75;;
72319;SDS011;60269;52.502;16.732;2023-07-08T04:56:49;9.80;;;4.50;;
72319;SDS011;60269;52.502;16.732;2023-07-08T05:00:21;14.57;;;4.20;;
72319;SDS011;60269;52.502;16.732;2023-07-08T05:03:54;14.63;;;4.95;;
72319;SDS011;60269;52.502;16.732;2023-07-08T05:07:26;8.50;;;4.13;;
72319;SDS011;60269;52.502;16.732;2023-07-08T05:10:57;9.50;;;5.03;;
72319;SDS011;60269;52.502;16.732;2023-07-08T05:14:31;9.37;;;4.47;;
72319;SDS011;60269;52.502;16.732;2023-07-08T05:18:03;10.93;;;4.25;;
72319;SDS011;60269;52.502;16.732;2023-07-08T05:21:35;8.48;;;4.63;;
72319;SDS011;60269;52.502;16.732;2023-07-08T05:25:07;11.77;;;4.57;;
72319;SDS011;60269;52.502;16.732;2023-07-08T05:28:40;8.47;;;3.90;;
72319;SDS011;60269;52.502;16.732;2023-07-08T05:32:11;12.05;;;4.47;;
72319;SDS011;60269;52.502;16.732;2023-07-08T05:35:45;11.30;;;4.38;;
72319;SDS011;60269;52.502;16.732;2023-07-08T05:39:18;9.50;;;4.57;;
72319;SDS011;60269;52.502;16.732;2023-07-08T05:42:50;9.07;;;4.00;;
72319;SDS011;60269;52.502;16.732;2023-07-08T05:46:25;8.85;;;3.67;;
72319;SDS011;60269;52.502;16.732;2023-07-08T05:49:58;12.02;;;3.40;;
72319;SDS011;60269;52.502;16.732;2023-07-08T05:53:30;9.63;;;3.63;;
72319;SDS011;60269;52.502;16.732;2023-07-08T05:57:02;12.20;;;3.57;;
72319;SDS011;60269;52.502;16.732;2023-07-08T06:00:34;7.82;;;3.95;;
72319;SDS011;60269;52.502;16.732;2023-07-08T06:04:10;6.50;;;3.20;;
72319;SDS011;60269;52.502;16.732;2023-07-08T06:07:42;8.00;;;3.40;;
72319;SDS011;60269;52.502;16.732;2023-07-08T06:11:16;9.90;;;4.00;;
72319;SDS011;60269;52.502;16.732;2023-07-08T06:14:48;9.18;;;3.35;;
72319;SDS011;60269;52.502;16.732;2023-07-08T06:18:21;8.18;;;3.38;;
72319;SDS011;60269;52.502;16.732;2023-07-08T06:21:53;10.50;;;3.70;;
72319;SDS011;60269;52.502;16.732;2023-07-08T06:25:25;6.53;;;2.93;;
72319;SDS011;60269;52.502;16.732;2023-07-08T06:28:59;8.65;;;3.15;;
72319;SDS011;60269;52.502;16.732;2023-07-08T06:32:32;8.52;;;3.05;;
72319;SDS011;60269;52.502;16.732;2023-07-08T06:36:04;8.55;;;3.90;;
72319;SDS011;60269;52.502;16.732;2023-07-08T06:39:38;7.13;;;3.10;;
72319;SDS011;60269;52.502;16.732;2023-07-08T06:43:13;8.68;;;2.75;;
72319;SDS011;60269;52.502;16.732;2023-07-08T06:46:45;6.32;;;2.78;;
72319;SDS011;60269;52.502;16.732;2023-07-08T06:50:20;6.63;;;3.13;;
72319;SDS011;60269;52.502;16.732;2023-07-08T06:53:52;7.97;;;3.30;;
72319;SDS011;60269;52.502;16.732;2023-07-08T06:57:24;6.68;;;2.40;;
72319;SDS011;60269;52.502;16.732;2023-07-08T07:00:56;10.70;;;2.97;;
72319;SDS011;60269;52.502;16.732;2023-07-08T07:04:28;9.00;;;2.80;;
72319;SDS011;60269;52.502;16.732;2023-07-08T07:08:02;8.13;;;3.27;;
72319;SDS011;60269;52.502;16.732;2023-07-08T07:11:35;5.80;;;2.55;;
72319;SDS011;60269;52.502;16.732;2023-07-08T07:15:08;5.13;;;1.90;;
72319;SDS011;60269;52.502;16.732;2023-07-08T07:18:41;6.07;;;2.20;;
72319;SDS011;60269;52.502;16.732;2023-07-08T07:22:13;8.23;;;2.40;;
72319;SDS011;60269;52.502;16.732;2023-07-08T07:25:46;5.22;;;2.20;;
72319;SDS011;60269;52.502;16.732;2023-07-08T07:29:21;8.25;;;2.40;;
72319;SDS011;60269;52.502;16.732;2023-07-08T07:32:58;7.13;;;2.27;;
72319;SDS011;60269;52.502;16.732;2023-07-08T07:36:32;6.50;;;2.30;;
72319;SDS011;60269;52.502;16.732;2023-07-08T07:40:04;8.77;;;2.22;;
72319;SDS011;60269;52.502;16.732;2023-07-08T07:43:38;7.63;;;2.13;;
72319;SDS011;60269;52.502;16.732;2023-07-08T07:47:11;5.23;;;2.60;;
72319;SDS011;60269;52.502;16.732;2023-07-08T07:50:47;8.23;;;2.17;;
72319;SDS011;60269;52.502;16.732;2023-07-08T07:54:21;6.45;;;2.13;;
72319;SDS011;60269;52.502;16.732;2023-07-08T07:57:53;6.22;;;1.80;;
72319;SDS011;60269;52.502;16.732;2023-07-08T08:01:25;6.40;;;2.67;;
72319;SDS011;60269;52.502;16.732;2023-07-08T08:04:57;5.05;;;2.33;;
72319;SDS011;60269;52.502;16.732;2023-07-08T08:08:29;10.93;;;2.50;;
72319;SDS011;60269;52.502;16.732;2023-07-08T08:12:02;7.35;;;2.67;;
72319;SDS011;60269;52.502;16.732;2023-07-08T08:15:38;6.10;;;2.17;;
72319;SDS011;60269;52.502;16.732;2023-07-08T08:19:12;5.63;;;2.30;;
72319;SDS011;60269;52.502;16.732;2023-07-08T08:22:45;5.68;;;2.22;;
72319;SDS011;60269;52.502;16.732;2023-07-08T08:26:18;4.80;;;2.13;;
72319;SDS011;60269;52.502;16.732;2023-07-08T08:29:51;7.67;;;2.80;;
72319;SDS011;60269;52.502;16.732;2023-07-08T08:33:24;8.73;;;2.20;;
72319;SDS011;60269;52.502;16.732;2023-07-08T08:37:02;9.82;;;2.70;;
72319;SDS011;60269;52.502;16.732;2023-07-08T08:40:34;7.27;;;2.10;;
72319;SDS011;60269;52.502;16.732;2023-07-08T08:44:06;5.40;;;2.50;;
72319;SDS011;60269;52.502;16.732;2023-07-08T08:47:45;5.70;;;2.50;;
72319;SDS011;60269;52.502;16.732;2023-07-08T08:51:18;6.30;;;2.30;;
72319;SDS011;60269;52.502;16.732;2023-07-08T08:54:51;6.50;;;2.03;;
72319;SDS011;60269;52.502;16.732;2023-07-08T09:10:19;7.37;;;2.50;;
72319;SDS011;60269;52.502;16.732;2023-07-08T09:14:03;6.18;;;2.97;;
72319;SDS011;60269;52.502;16.732;2023-07-08T09:17:46;5.18;;;2.50;;
72319;SDS011;60269;52.502;16.732;2023-07-08T09:21:19;13.13;;;3.20;;
72319;SDS011;60269;52.502;16.732;2023-07-08T09:24:59;10.00;;;2.77;;
72319;SDS011;60269;52.502;16.732;2023-07-08T09:28:43;7.00;;;2.40;;
72319;SDS011;60269;52.502;16.732;2023-07-08T09:32:17;8.45;;;2.72;;
72319;SDS011;60269;52.502;16.732;2023-07-08T09:35:57;6.13;;;2.73;;
72319;SDS011;60269;52.502;16.732;2023-07-08T09:39:35;6.33;;;2.70;;
72319;SDS011;60269;52.502;16.732;2023-07-08T09:46:58;6.63;;;2.42;;
72319;SDS011;60269;52.502;16.732;2023-07-08T09:50:30;6.87;;;2.47;;
72319;SDS011;60269;52.502;16.732;2023-07-08T09:54:07;5.47;;;2.65;;
72319;SDS011;60269;52.502;16.732;2023-07-08T09:57:39;8.02;;;2.83;;
72319;SDS011;60269;52.502;16.732;2023-07-08T10:01:17;5.18;;;2.50;;
72319;SDS011;60269;52.502;16.732;2023-07-08T10:04:56;4.27;;;2.17;;
72319;SDS011;60269;52.502;16.732;2023-07-08T10:08:39;5.93;;;2.63;;
72319;SDS011;60269;52.502;16.732;2023-07-08T10:12:15;5.53;;;2.33;;
72319;SDS011;60269;52.502;16.732;2023-07-08T10:15:49;5.93;;;2.60;;
72319;SDS011;60269;52.502;16.732;2023-07-08T10:19:28;6.28;;;3.05;;
72319;SDS011;60269;52.502;16.732;2023-07-08T10:23:30;5.15;;;2.50;;
72319;SDS011;60269;52.502;16.732;2023-07-08T10:30:44;5.07;;;2.63;;
72319;SDS011;60269;52.502;16.732;2023-07-08T10:38:54;5.55;;;2.35;;
72319;SDS011;60269;52.502;16.732;2023-07-08T10:42:42;6.13;;;2.67;;
72319;SDS011;60269;52.502;16.732;2023-07-08T10:46:32;4.82;;;2.42;;
72319;SDS011;60269;52.502;16.732;2023-07-08T10:50:24;5.53;;;3.13;;
72319;SDS011;60269;52.502;16.732;2023-07-08T10:54:13;6.47;;;3.63;;
72319;SDS011;60269;52.502;16.732;2023-07-08T11:09:49;5.03;;;2.57;;
72319;SDS011;60269;52.502;16.732;2023-07-08T11:13:29;5.50;;;3.05;;
72319;SDS011;60269;52.502;16.732;2023-07-08T11:21:01;4.73;;;2.60;;
72319;SDS011;60269;52.502;16.732;2023-07-08T11:24:49;5.63;;;2.90;;
72319;SDS011;60269;52.502;16.732;2023-07-08T11:28:25;7.63;;;2.70;;
72319;SDS011;60269;52.502;16.732;2023-07-08T11:31:58;7.65;;;2.80;;
72319;SDS011;60269;52.502;16.732;2023-07-08T11:35:44;5.13;;;2.50;;
72319;SDS011;60269;52.502;16.732;2023-07-08T11:43:33;5.75;;;2.53;;
72319;SDS011;60269;52.502;16.732;2023-07-08T11:47:17;5.57;;;2.90;;
72319;SDS011;60269;52.502;16.732;2023-07-08T11:51:09;6.80;;;2.78;;
72319;SDS011;60269;52.502;16.732;2023-07-08T11:54:48;4.30;;;2.25;;
72319;SDS011;60269;52.502;16.732;2023-07-08T11:58:31;9.18;;;2.85;;
72319;SDS011;60269;52.502;16.732;2023-07-08T12:02:22;5.60;;;3.07;;
72319;SDS011;60269;52.502;16.732;2023-07-08T12:05:56;7.80;;;2.58;;
72319;SDS011;60269;52.502;16.732;2023-07-08T12:09:29;5.45;;;3.45;;
72319;SDS011;60269;52.502;16.732;2023-07-08T12:13:15;5.80;;;3.43;;
72319;SDS011;60269;52.502;16.732;2023-07-08T12:16:50;7.20;;;3.00;;
72319;SDS011;60269;52.502;16.732;2023-07-08T12:20:24;5.90;;;2.60;;
72319;SDS011;60269;52.502;16.732;2023-07-08T12:24:04;6.27;;;3.23;;
72319;SDS011;60269;52.502;16.732;2023-07-08T12:27:40;4.97;;;2.75;;
72319;SDS011;60269;52.502;16.732;2023-07-08T12:31:16;6.07;;;3.08;;
72319;SDS011;60269;52.502;16.732;2023-07-08T12:34:53;4.95;;;2.60;;
72319;SDS011;60269;52.502;16.732;2023-07-08T12:42:11;5.85;;;3.42;;
72319;SDS011;60269;52.502;16.732;2023-07-08T12:45:43;6.53;;;3.22;;
72319;SDS011;60269;52.502;16.732;2023-07-08T12:49:16;6.90;;;3.83;;
72319;SDS011;60269;52.502;16.732;2023-07-08T12:52:49;5.30;;;2.88;;
72319;SDS011;60269;52.502;16.732;2023-07-08T12:56:22;4.97;;;3.08;;
72319;SDS011;60269;52.502;16.732;2023-07-08T12:59:55;6.47;;;3.45;;
72319;SDS011;60269;52.502;16.732;2023-07-08T13:03:30;5.57;;;2.67;;
72319;SDS011;60269;52.502;16.732;2023-07-08T13:07:05;6.55;;;2.85;;
72319;SDS011;60269;52.502;16.732;2023-07-08T13:10:37;6.60;;;3.83;;
72319;SDS011;60269;52.502;16.732;2023-07-08T13:14:09;8.43;;;2.50;;
72319;SDS011;60269;52.502;16.732;2023-07-08T13:17:42;6.22;;;2.47;;
72319;SDS011;60269;52.502;16.732;2023-07-08T13:21:14;7.68;;;3.05;;
72319;SDS011;60269;52.502;16.732;2023-07-08T13:24:48;6.07;;;3.23;;
72319;SDS011;60269;52.502;16.732;2023-07-08T13:28:36;6.78;;;3.55;;
72319;SDS011;60269;52.502;16.732;2023-07-08T13:32:11;7.03;;;3.50;;
72319;SDS011;60269;52.502;16.732;2023-07-08T13:35:43;6.40;;;4.00;;
72319;SDS011;60269;52.502;16.732;2023-07-08T13:39:25;6.83;;;3.53;;
72319;SDS011;60269;52.502;16.732;2023-07-08T13:43:00;6.00;;;3.03;;
72319;SDS011;60269;52.502;16.732;2023-07-08T13:46:36;7.60;;;3.65;;
72319;SDS011;60269;52.502;16.732;2023-07-08T13:50:19;7.80;;;3.77;;
72319;SDS011;60269;52.502;16.732;2023-07-08T13:53:59;5.82;;;4.53;;
72319;SDS011;60269;52.502;16.732;2023-07-08T13:57:36;7.18;;;5.15;;
72319;SDS011;60269;52.502;16.732;2023-07-08T14:01:18;8.37;;;4.63;;
72319;SDS011;60269;52.502;16.732;2023-07-08T14:04:54;7.18;;;4.38;;
72319;SDS011;60269;52.502;16.732;2023-07-08T14:08:28;6.80;;;4.35;;
72319;SDS011;60269;52.502;16.732;2023-07-08T14:12:02;7.45;;;4.13;;
72319;SDS011;60269;52.502;16.732;2023-07-08T14:15:36;5.73;;;3.77;;
72319;SDS011;60269;52.502;16.732;2023-07-08T14:19:14;6.43;;;3.83;;
72319;SDS011;60269;52.502;16.732;2023-07-08T14:22:53;8.05;;;3.88;;
72319;SDS011;60269;52.502;16.732;2023-07-08T14:26:28;6.60;;;4.63;;
72319;SDS011;60269;52.502;16.732;2023-07-08T14:30:00;6.78;;;4.60;;
72319;SDS011;60269;52.502;16.732;2023-07-08T14:33:32;7.00;;;5.10;;
72319;SDS011;60269;52.502;16.732;2023-07-08T14:37:08;6.57;;;4.87;;
72319;SDS011;60269;52.502;16.732;2023-07-08T14:40:46;6.15;;;4.63;;
72319;SDS011;60269;52.502;16.732;2023-07-08T14:44:22;5.57;;;4.03;;
72319;SDS011;60269;52.502;16.732;2023-07-08T14:48:09;6.75;;;4.57;;
72319;SDS011;60269;52.502;16.732;2023-07-08T14:51:42;5.53;;;4.03;;
72319;SDS011;60269;52.502;16.732;2023-07-08T14:55:14;6.15;;;4.82;;
72319;SDS011;60269;52.502;16.732;2023-07-08T14:58:46;7.65;;;4.18;;
72319;SDS011;60269;52.502;16.732;2023-07-08T15:02:20;6.30;;;4.03;;
72319;SDS011;60269;52.502;16.732;2023-07-08T15:05:54;6.28;;;4.05;;
72319;SDS011;60269;52.502;16.732;2023-07-08T15:09:26;6.97;;;4.47;;
72319;SDS011;60269;52.502;16.732;2023-07-08T15:12:59;5.93;;;3.83;;
72319;SDS011;60269;52.502;16.732;2023-07-08T15:16:31;5.80;;;3.92;;
72319;SDS011;60269;52.502;16.732;2023-07-08T15:20:07;7.60;;;4.25;;
72319;SDS011;60269;52.502;16.732;2023-07-08T15:23:42;7.38;;;4.38;;
72319;SDS011;60269;52.502;16.732;2023-07-08T15:27:15;5.73;;;4.13;;
72319;SDS011;60269;52.502;16.732;2023-07-08T15:30:54;8.18;;;4.40;;
72319;SDS011;60269;52.502;16.732;2023-07-08T15:34:26;7.80;;;4.55;;
72319;SDS011;60269;52.502;16.732;2023-07-08T15:37:58;5.90;;;3.97;;
72319;SDS011;60269;52.502;16.732;2023-07-08T15:41:34;6.68;;;4.50;;
72319;SDS011;60269;52.502;16.732;2023-07-08T15:45:15;6.72;;;4.05;;
72319;SDS011;60269;52.502;16.732;2023-07-08T15:48:58;6.30;;;4.70;;
72319;SDS011;60269;52.502;16.732;2023-07-08T15:52:30;7.47;;;4.70;;
72319;SDS011;60269;52.502;16.732;2023-07-08T15:56:05;10.10;;;4.20;;
72319;SDS011;60269;52.502;16.732;2023-07-08T15:59:42;8.73;;;5.13;;
72319;SDS011;60269;52.502;16.732;2023-07-08T16:03:23;6.90;;;4.50;;
72319;SDS011;60269;52.502;16.732;2023-07-08T16:06:57;6.78;;;4.40;;
72319;SDS011;60269;52.502;16.732;2023-07-08T16:10:34;6.30;;;4.65;;
72319;SDS011;60269;52.502;16.732;2023-07-08T16:14:13;6.80;;;3.10;;
72319;SDS011;60269;52.502;16.732;2023-07-08T16:17:47;6.35;;;4.80;;
72319;SDS011;60269;52.502;16.732;2023-07-08T16:21:19;6.88;;;4.97;;
72319;SDS011;60269;52.502;16.732;2023-07-08T16:24:51;7.53;;;5.30;;
72319;SDS011;60269;52.502;16.732;2023-07-08T16:31:55;8.00;;;4.25;;
72319;SDS011;60269;52.502;16.732;2023-07-08T16:35:28;6.40;;;4.50;;
72319;SDS011;60269;52.502;16.732;2023-07-08T16:39:00;6.17;;;4.17;;
72319;SDS011;60269;52.502;16.732;2023-07-08T16:42:35;6.13;;;4.55;;
72319;SDS011;60269;52.502;16.732;2023-07-08T16:46:10;6.43;;;4.72;;
72319;SDS011;60269;52.502;16.732;2023-07-08T16:49:44;6.30;;;4.10;;
72319;SDS011;60269;52.502;16.732;2023-07-08T16:53:16;6.13;;;4.65;;
72319;SDS011;60269;52.502;16.732;2023-07-08T16:56:48;7.35;;;4.97;;
72319;SDS011;60269;52.502;16.732;2023-07-08T17:00:20;6.27;;;4.23;;
72319;SDS011;60269;52.502;16.732;2023-07-08T17:03:52;7.25;;;4.20;;
72319;SDS011;60269;52.502;16.732;2023-07-08T17:07:27;6.80;;;4.63;;
72319;SDS011;60269;52.502;16.732;2023-07-08T17:11:00;8.77;;;3.63;;
72319;SDS011;60269;52.502;16.732;2023-07-08T17:14:32;6.23;;;3.90;;
72319;SDS011;60269;52.502;16.732;2023-07-08T17:18:05;8.05;;;4.43;;
72319;SDS011;60269;52.502;16.732;2023-07-08T17:21:38;6.22;;;3.30;;
72319;SDS011;60269;52.502;16.732;2023-07-08T17:25:14;6.17;;;3.90;;
72319;SDS011;60269;52.502;16.732;2023-07-08T17:28:47;6.95;;;3.67;;
72319;SDS011;60269;52.502;16.732;2023-07-08T17:32:20;7.15;;;4.43;;
72319;SDS011;60269;52.502;16.732;2023-07-08T17:35:53;7.27;;;3.13;;
72319;SDS011;60269;52.502;16.732;2023-07-08T17:39:26;7.38;;;3.78;;
72319;SDS011;60269;52.502;16.732;2023-07-08T17:42:58;6.72;;;3.60;;
72319;SDS011;60269;52.502;16.732;2023-07-08T17:46:30;7.13;;;3.53;;
72319;SDS011;60269;52.502;16.732;2023-07-08T17:50:12;6.80;;;3.93;;
72319;SDS011;60269;52.502;16.732;2023-07-08T17:53:46;6.60;;;3.50;;
72319;SDS011;60269;52.502;16.732;2023-07-08T17:57:18;5.97;;;3.15;;
72319;SDS011;60269;52.502;16.732;2023-07-08T18:00:51;6.77;;;3.57;;
72319;SDS011;60269;52.502;16.732;2023-07-08T18:04:23;8.07;;;4.10;;
72319;SDS011;60269;52.502;16.732;2023-07-08T18:07:57;6.53;;;3.58;;
72319;SDS011;60269;52.502;16.732;2023-07-08T18:11:29;11.43;;;3.33;;
72319;SDS011;60269;52.502;16.732;2023-07-08T18:15:03;6.63;;;3.27;;
72319;SDS011;60269;52.502;16.732;2023-07-08T18:18:42;5.63;;;2.88;;
72319;SDS011;60269;52.502;16.732;2023-07-08T18:22:15;7.78;;;3.72;;
72319;SDS011;60269;52.502;16.732;2023-07-08T18:25:47;5.63;;;3.15;;
72319;SDS011;60269;52.502;16.732;2023-07-08T18:29:19;7.43;;;2.97;;
72319;SDS011;60269;52.502;16.732;2023-07-08T18:32:52;7.00;;;2.92;;
72319;SDS011;60269;52.502;16.732;2023-07-08T18:36:25;6.57;;;3.17;;
72319;SDS011;60269;52.502;16.732;2023-07-08T18:39:58;6.43;;;2.73;;
72319;SDS011;60269;52.502;16.732;2023-07-08T18:43:31;7.07;;;2.83;;
72319;SDS011;60269;52.502;16.732;2023-07-08T18:47:03;6.68;;;2.75;;
72319;SDS011;60269;52.502;16.732;2023-07-08T18:50:36;7.80;;;3.15;;
72319;SDS011;60269;52.502;16.732;2023-07-08T18:54:13;6.47;;;2.93;;
72319;SDS011;60269;52.502;16.732;2023-07-08T18:57:49;5.93;;;2.63;;
72319;SDS011;60269;52.502;16.732;2023-07-08T19:01:23;7.38;;;2.35;;
72319;SDS011;60269;52.502;16.732;2023-07-08T19:04:56;7.50;;;2.58;;
72319;SDS011;60269;52.502;16.732;2023-07-08T19:08:28;6.37;;;2.30;;
72319;SDS011;60269;52.502;16.732;2023-07-08T19:12:00;8.30;;;2.20;;
72319;SDS011;60269;52.502;16.732;2023-07-08T19:15:33;6.40;;;2.10;;
72319;SDS011;60269;52.502;16.732;2023-07-08T19:19:05;8.80;;;3.05;;
72319;SDS011;60269;52.502;16.732;2023-07-08T19:22:37;4.80;;;1.87;;
72319;SDS011;60269;52.502;16.732;2023-07-08T19:26:14;7.40;;;2.20;;
72319;SDS011;60269;52.502;16.732;2023-07-08T19:29:47;7.60;;;2.50;;
72319;SDS011;60269;52.502;16.732;2023-07-08T19:33:19;6.50;;;2.58;;
72319;SDS011;60269;52.502;16.732;2023-07-08T19:36:51;7.95;;;2.45;;
72319;SDS011;60269;52.502;16.732;2023-07-08T19:40:24;8.03;;;2.40;;
72319;SDS011;60269;52.502;16.732;2023-07-08T19:43:58;7.45;;;1.95;;
72319;SDS011;60269;52.502;16.732;2023-07-08T19:47:43;8.15;;;2.13;;
72319;SDS011;60269;52.502;16.732;2023-07-08T19:51:15;8.80;;;2.47;;
72319;SDS011;60269;52.502;16.732;2023-07-08T19:54:47;8.90;;;2.47;;
72319;SDS011;60269;52.502;16.732;2023-07-08T19:58:19;9.93;;;2.47;;
72319;SDS011;60269;52.502;16.732;2023-07-08T20:01:51;6.68;;;1.75;;
72319;SDS011;60269;52.502;16.732;2023-07-08T20:05:27;8.50;;;2.20;;
72319;SDS011;60269;52.502;16.732;2023-07-08T20:09:01;6.60;;;2.47;;
72319;SDS011;60269;52.502;16.732;2023-07-08T20:12:34;13.63;;;3.15;;
72319;SDS011;60269;52.502;16.732;2023-07-08T20:19:46;8.87;;;2.07;;
72319;SDS011;60269;52.502;16.732;2023-07-08T20:23:18;8.67;;;2.83;;
72319;SDS011;60269;52.502;16.732;2023-07-08T20:26:50;8.02;;;2.50;;
72319;SDS011;60269;52.502;16.732;2023-07-08T20:30:23;7.63;;;2.28;;
72319;SDS011;60269;52.502;16.732;2023-07-08T20:33:59;7.13;;;2.30;;
72319;SDS011;60269;52.502;16.732;2023-07-08T20:37:32;7.73;;;2.67;;
72319;SDS011;60269;52.502;16.732;2023-07-08T20:41:04;6.18;;;2.08;;
72319;SDS011;60269;52.502;16.732;2023-07-08T20:44:36;7.45;;;2.30;;
72319;SDS011;60269;52.502;16.732;2023-07-08T20:48:22;7.93;;;2.72;;
72319;SDS011;60269;52.502;16.732;2023-07-08T20:51:56;7.67;;;2.40;;
72319;SDS011;60269;52.502;16.732;2023-07-08T20:55:28;6.80;;;2.00;;
72319;SDS011;60269;52.502;16.732;2023-07-08T20:59:01;6.07;;;1.92;;
72319;SDS011;60269;52.502;16.732;2023-07-08T21:02:32;7.20;;;1.95;;
72319;SDS011;60269;52.502;16.732;2023-07-08T21:06:05;7.83;;;2.10;;
72319;SDS011;60269;52.502;16.732;2023-07-08T21:09:37;7.22;;;2.20;;
72319;SDS011;60269;52.502;16.732;2023-07-08T21:13:09;8.20;;;2.00;;
72319;SDS011;60269;52.502;16.732;2023-07-08T21:16:41;7.10;;;2.30;;
72319;SDS011;60269;52.502;16.732;2023-07-08T21:20:15;7.67;;;2.87;;
72319;SDS011;60269;52.502;16.732;2023-07-08T21:23:52;7.03;;;2.28;;
72319;SDS011;60269;52.502;16.732;2023-07-08T21:27:25;7.15;;;1.88;;
72319;SDS011;60269;52.502;16.732;2023-07-08T21:31:00;5.40;;;1.80;;
72319;SDS011;60269;52.502;16.732;2023-07-08T21:34:32;7.23;;;2.23;;
72319;SDS011;60269;52.502;16.732;2023-07-08T21:38:04;6.43;;;2.08;;
72319;SDS011;60269;52.502;16.732;2023-07-08T21:41:36;7.25;;;1.92;;
72319;SDS011;60269;52.502;16.732;2023-07-08T21:45:14;7.80;;;2.70;;
72319;SDS011;60269;52.502;16.732;2023-07-08T21:48:55;5.90;;;2.17;;
72319;SDS011;60269;52.502;16.732;2023-07-08T21:52:27;7.20;;;2.25;;
72319;SDS011;60269;52.502;16.732;2023-07-08T21:56:00;7.60;;;2.28;;
72319;SDS011;60269;52.502;16.732;2023-07-08T21:59:33;6.40;;;2.13;;
72319;SDS011;60269;52.502;16.732;2023-07-08T22:03:11;6.07;;;2.03;;